Terminal Aerodrome Forecast
Issued by NWS Tallahassee, FL

Home | Current Version | Previous Version | Text Only | Print | Product List | Glossary On
Versions: 1 2 3 4 5 6 7 8 9 10 11 12
055
FTUS42 KTAE 291120
TAFTLH
TAF
KTLH 291120Z 2912/3012 00000KT P6SM FEW080 SCT250
     FM291400 36006KT P6SM SCT060
     FM300100 00000KT P6SM SCT250=

USA.gov is the U.S. government's official web portal to all federal, state and local government web resources and services.